createdAt,value
2023-03-27T00:00:19.657Z,18.0
2023-03-27T00:01:19.645Z,18.4
2023-03-27T00:02:19.714Z,19.6
2023-03-27T00:03:19.817Z,16.4
2023-03-27T00:04:19.689Z,17.6
2023-03-27T00:05:19.557Z,20.0
2023-03-27T00:06:19.608Z,20.9
2023-03-27T00:07:19.599Z,18.8
2023-03-27T00:08:19.654Z,18.8
2023-03-27T00:09:19.794Z,20.9
2023-03-27T00:10:19.661Z,23.2
2023-03-27T00:11:19.593Z,19.6
2023-03-27T00:12:19.565Z,19.8
2023-03-27T00:13:19.604Z,20.9
2023-03-27T00:14:19.650Z,19.1
2023-03-27T00:15:19.665Z,21.6
2023-03-27T00:16:19.649Z,20.6
2023-03-27T00:17:19.589Z,20.6
2023-03-27T00:18:19.600Z,20.3
2023-03-27T00:19:19.637Z,20.4
2023-03-27T00:20:19.901Z,20.1
2023-03-27T00:21:19.653Z,19.7
2023-03-27T00:22:19.558Z,22.1
2023-03-27T00:23:19.577Z,25.6
2023-03-27T00:24:19.592Z,28.9
2023-03-27T00:25:19.696Z,29.7
2023-03-27T00:26:19.590Z,25.1
2023-03-27T00:27:19.554Z,20.6
2023-03-27T00:28:19.587Z,20.2
2023-03-27T00:29:19.636Z,17.8
2023-03-27T00:30:19.543Z,21.8
2023-03-27T00:31:19.892Z,18.9
2023-03-27T00:32:19.622Z,19.4
2023-03-27T00:33:19.569Z,18.4
2023-03-27T00:34:19.595Z,18.6
2023-03-27T00:35:19.583Z,19.1
2023-03-27T00:36:19.670Z,20.6
2023-03-27T00:37:19.529Z,19.5
2023-03-27T00:38:19.525Z,24.0
2023-03-27T00:39:19.568Z,19.1
2023-03-27T00:40:19.605Z,18.7
2023-03-27T00:41:19.644Z,18.2
2023-03-27T00:42:19.527Z,16.5
2023-03-27T00:43:19.590Z,17.4
2023-03-27T00:44:19.603Z,18.8
2023-03-27T00:45:19.550Z,16.0
2023-03-27T00:46:19.539Z,17.3
2023-03-27T00:47:19.518Z,16.0
2023-03-27T00:48:19.518Z,12.2
2023-03-27T00:49:19.667Z,13.1
2023-03-27T00:50:19.704Z,14.5
2023-03-27T00:51:19.593Z,14.9
2023-03-27T00:52:19.496Z,13.1
2023-03-27T00:53:19.521Z,12.0
2023-03-27T00:54:19.636Z,10.5
2023-03-27T00:55:19.595Z,12.2
2023-03-27T00:56:19.557Z,8.7
2023-03-27T00:57:19.931Z,13.3
2023-03-27T00:58:19.540Z,10.8
2023-03-27T00:59:19.695Z,9.9
2023-03-27T01:00:19.788Z,9.3
2023-03-27T01:01:19.823Z,9.6
2023-03-27T01:02:19.749Z,10.1
2023-03-27T01:03:19.734Z,8.3
2023-03-27T01:04:19.790Z,9.2
2023-03-27T01:05:19.735Z,9.3
2023-03-27T01:06:19.793Z,7.2
2023-03-27T01:07:19.618Z,8.8
2023-03-27T01:08:19.733Z,9.4
2023-03-27T01:09:20.553Z,8.2
2023-03-27T01:10:19.779Z,10.6
2023-03-27T01:11:19.675Z,12.5
2023-03-27T01:12:20.864Z,11.7
2023-03-27T01:13:19.601Z,14.8
2023-03-27T01:14:19.648Z,11.5
2023-03-27T01:15:19.618Z,11.3
2023-03-27T01:16:19.621Z,13.6
2023-03-27T01:17:19.484Z,14.7
2023-03-27T01:18:19.494Z,17.2
2023-03-27T01:19:19.758Z,16.6
2023-03-27T01:20:19.487Z,15.4
2023-03-27T01:21:19.734Z,17.6
2023-03-27T01:22:19.481Z,14.2
2023-03-27T01:23:35.327Z,15.7
2023-03-27T01:24:19.487Z,13.8
2023-03-27T01:25:19.443Z,15.7
2023-03-27T01:26:35.304Z,16.7
2023-03-27T01:27:19.463Z,15.6
2023-03-27T01:28:19.479Z,18.2
2023-03-27T01:29:19.439Z,19.3
2023-03-27T01:30:19.447Z,14.0
2023-03-27T01:31:19.440Z,18.8
2023-03-27T01:32:19.454Z,17.2
2023-03-27T01:33:19.463Z,20.2
2023-03-27T01:34:19.421Z,20.4
2023-03-27T01:35:19.459Z,23.4
2023-03-27T01:36:19.440Z,25.4
2023-03-27T01:37:20.217Z,27.0
2023-03-27T01:38:19.657Z,24.1
2023-03-27T01:39:19.520Z,27.6
2023-03-27T01:40:19.501Z,27.8
2023-03-27T01:41:19.426Z,36.6
2023-03-27T01:42:19.404Z,23.9
2023-03-27T01:43:19.517Z,25.1
2023-03-27T01:44:19.574Z,28.3
2023-03-27T01:45:19.438Z,24.9
2023-03-27T01:46:19.490Z,21.6
2023-03-27T01:47:19.449Z,19.8
2023-03-27T01:48:19.404Z,20.9
2023-03-27T01:49:19.497Z,17.5
2023-03-27T01:50:19.450Z,18.0
2023-03-27T01:51:19.475Z,16.6
2023-03-27T01:52:19.435Z,18.1
2023-03-27T01:53:19.384Z,20.1
2023-03-27T01:54:19.440Z,17.3
2023-03-27T01:55:19.551Z,16.7
2023-03-27T01:56:19.441Z,19.2
2023-03-27T01:57:19.705Z,19.0
2023-03-27T01:58:19.549Z,16.1
2023-03-27T01:59:19.419Z,15.9
2023-03-27T02:00:19.779Z,16.6
2023-03-27T02:01:19.457Z,20.9
2023-03-27T02:02:19.434Z,18.1
2023-03-27T02:04:19.560Z,19.7
2023-03-27T02:05:19.509Z,17.6
2023-03-27T02:06:19.406Z,16.8
2023-03-27T02:07:19.560Z,15.3
2023-03-27T02:08:19.500Z,15.0
2023-03-27T02:09:21.353Z,15.7
2023-03-27T02:10:19.405Z,15.0
2023-03-27T02:11:19.406Z,15.7
2023-03-27T02:12:19.372Z,17.0
2023-03-27T02:13:19.454Z,15.4
2023-03-27T02:14:19.368Z,15.1
2023-03-27T02:15:24.586Z,15.7
2023-03-27T02:16:19.446Z,16.0
2023-03-27T02:17:19.338Z,18.0
2023-03-27T02:18:19.354Z,18.0
2023-03-27T02:19:19.381Z,24.5
2023-03-27T02:20:19.405Z,19.4
2023-03-27T02:21:20.338Z,20.1
2023-03-27T02:22:19.365Z,19.3
2023-03-27T02:23:19.369Z,21.2
2023-03-27T02:24:19.435Z,22.0
2023-03-27T02:25:19.410Z,21.5
2023-03-27T02:26:19.403Z,22.2
2023-03-27T02:27:19.363Z,23.4
2023-03-27T02:28:19.363Z,21.6
2023-03-27T02:29:19.383Z,22.2
2023-03-27T02:30:19.583Z,21.7
2023-03-27T02:31:33.276Z,23.9
2023-03-27T02:32:19.520Z,23.1
2023-03-27T02:33:19.397Z,23.1
2023-03-27T02:34:19.327Z,25.3
2023-03-27T02:35:19.340Z,26.2
2023-03-27T02:36:19.369Z,22.9
2023-03-27T02:37:19.368Z,24.5
2023-03-27T02:38:19.341Z,26.4
2023-03-27T02:39:19.361Z,21.6
2023-03-27T02:40:19.298Z,24.0
2023-03-27T02:41:19.486Z,20.1
2023-03-27T02:42:19.413Z,26.4
2023-03-27T02:43:19.309Z,23.1
2023-03-27T02:44:20.274Z,21.5
2023-03-27T02:45:19.305Z,25.2
2023-03-27T02:46:19.431Z,24.1
2023-03-27T02:47:19.375Z,24.8
2023-03-27T02:48:19.405Z,22.1
2023-03-27T02:49:19.309Z,22.5
2023-03-27T02:50:19.308Z,23.6
2023-03-27T02:51:19.373Z,21.7
2023-03-27T02:52:19.349Z,26.1
2023-03-27T02:53:19.339Z,18.9
2023-03-27T02:54:19.391Z,18.0
2023-03-27T02:55:19.309Z,21.5
2023-03-27T02:56:19.323Z,22.8
2023-03-27T02:57:20.056Z,18.3
2023-03-27T02:58:19.327Z,21.1
2023-03-27T02:59:19.321Z,17.7
2023-03-27T03:00:19.447Z,15.9
2023-03-27T03:01:19.396Z,17.0
2023-03-27T03:02:19.527Z,17.6
2023-03-27T03:03:19.496Z,18.4
2023-03-27T03:04:19.319Z,20.2
2023-03-27T03:05:20.343Z,16.0
2023-03-27T03:06:19.310Z,17.5
2023-03-27T03:07:20.353Z,15.0
2023-03-27T03:08:19.298Z,16.4
2023-03-27T03:09:19.313Z,16.0
2023-03-27T03:10:19.308Z,16.6
2023-03-27T03:11:19.299Z,16.6
2023-03-27T03:12:19.290Z,17.0
2023-03-27T03:13:19.309Z,17.5
2023-03-27T03:14:19.445Z,15.6
2023-03-27T03:15:19.293Z,14.2
2023-03-27T03:16:19.322Z,15.4
2023-03-27T03:17:19.261Z,16.1
2023-03-27T03:18:19.330Z,17.0
2023-03-27T03:19:19.255Z,15.1
2023-03-27T03:20:19.451Z,14.9
2023-03-27T03:21:19.277Z,14.5
2023-03-27T03:22:19.235Z,15.5
2023-03-27T03:23:19.303Z,19.0
2023-03-27T03:24:19.253Z,17.8
2023-03-27T03:25:19.421Z,16.9
2023-03-27T03:26:19.268Z,16.6
2023-03-27T03:27:19.256Z,16.4
2023-03-27T03:28:19.310Z,14.9
2023-03-27T03:29:19.335Z,16.5
2023-03-27T03:30:19.297Z,16.4
2023-03-27T03:31:19.273Z,12.4
2023-03-27T03:32:19.277Z,15.1
2023-03-27T03:33:19.285Z,13.5
2023-03-27T03:34:19.706Z,15.6
2023-03-27T03:35:19.286Z,13.3
2023-03-27T03:36:19.435Z,14.8
2023-03-27T03:37:19.245Z,14.8
2023-03-27T03:38:19.266Z,16.4
2023-03-27T03:39:19.213Z,14.6
2023-03-27T03:40:19.238Z,17.9
2023-03-27T03:41:20.841Z,14.2
2023-03-27T03:42:22.831Z,15.5
2023-03-27T03:43:19.256Z,14.8
2023-03-27T03:44:19.286Z,15.4
2023-03-27T03:45:20.364Z,15.7
2023-03-27T03:46:19.319Z,13.5
2023-03-27T03:47:19.336Z,13.7
2023-03-27T03:48:19.241Z,14.2
2023-03-27T03:49:19.342Z,14.5
2023-03-27T03:50:19.282Z,13.2
2023-03-27T03:51:19.255Z,17.4
2023-03-27T03:52:19.274Z,14.0
2023-03-27T03:53:19.260Z,13.9
2023-03-27T03:54:19.200Z,17.5
2023-03-27T03:55:19.201Z,16.0
2023-03-27T03:56:19.242Z,15.3
2023-03-27T03:57:19.315Z,15.2
2023-03-27T03:58:19.643Z,17.0
2023-03-27T03:59:19.317Z,15.5
2023-03-27T04:00:19.258Z,18.6
2023-03-27T04:01:19.355Z,16.6
2023-03-27T04:02:19.533Z,17.1
2023-03-27T04:03:19.288Z,17.7
2023-03-27T04:04:19.209Z,16.4
2023-03-27T04:05:19.202Z,18.6
2023-03-27T04:06:20.555Z,17.3
2023-03-27T04:07:19.270Z,14.3
2023-03-27T04:08:19.199Z,14.4
2023-03-27T04:09:19.180Z,15.1
2023-03-27T04:10:19.187Z,17.5
2023-03-27T04:11:19.206Z,18.9
2023-03-27T04:12:19.210Z,17.1
2023-03-27T04:13:19.280Z,16.9
2023-03-27T04:14:19.214Z,15.4
2023-03-27T04:15:19.224Z,15.5
2023-03-27T04:16:19.286Z,16.5
2023-03-27T04:17:19.222Z,14.6
2023-03-27T04:18:19.394Z,17.7
2023-03-27T04:19:19.138Z,20.2
2023-03-27T04:20:19.350Z,17.9
2023-03-27T04:21:19.220Z,16.1
2023-03-27T04:22:19.216Z,17.5
2023-03-27T04:23:19.168Z,17.3
2023-03-27T04:24:19.194Z,16.0
2023-03-27T04:25:19.224Z,16.1
2023-03-27T04:26:19.356Z,13.9
2023-03-27T04:27:19.216Z,15.2
2023-03-27T04:28:19.170Z,14.6
2023-03-27T04:29:19.166Z,14.0
2023-03-27T04:30:19.260Z,16.1
2023-03-27T04:31:19.157Z,14.6
2023-03-27T04:32:19.511Z,13.6
2023-03-27T04:33:19.131Z,14.1
2023-03-27T04:34:19.163Z,16.4
2023-03-27T04:35:19.173Z,14.1
2023-03-27T04:36:19.185Z,16.5
2023-03-27T04:37:23.133Z,13.6
2023-03-27T04:38:19.128Z,15.7
2023-03-27T04:39:19.185Z,16.0
2023-03-27T04:40:19.175Z,17.0
2023-03-27T04:41:19.310Z,18.1
2023-03-27T04:42:19.500Z,14.9
2023-03-27T04:43:19.227Z,19.4
2023-03-27T04:44:19.141Z,14.2
2023-03-27T04:45:20.156Z,16.4
2023-03-27T04:46:19.172Z,17.3
2023-03-27T04:47:20.160Z,15.9
2023-03-27T04:48:19.106Z,17.1
2023-03-27T04:49:19.236Z,15.2
2023-03-27T04:50:19.187Z,17.9
2023-03-27T04:51:19.107Z,16.8
2023-03-27T04:52:19.110Z,19.2
2023-03-27T04:53:19.509Z,17.3
2023-03-27T04:54:19.222Z,18.0
2023-03-27T04:55:29.256Z,18.9
2023-03-27T04:56:19.132Z,17.0
2023-03-27T04:57:19.288Z,16.1
2023-03-27T04:58:19.124Z,14.2
2023-03-27T04:59:19.119Z,15.3
2023-03-27T05:00:19.251Z,14.3
2023-03-27T05:01:19.221Z,16.4
2023-03-27T05:02:19.122Z,14.7
2023-03-27T05:03:19.178Z,13.6
2023-03-27T05:04:19.064Z,14.3
2023-03-27T05:05:19.168Z,17.3
2023-03-27T05:06:19.084Z,14.0
2023-03-27T05:07:19.164Z,14.8
2023-03-27T05:08:19.183Z,14.2
2023-03-27T05:09:19.137Z,15.0
2023-03-27T05:10:21.856Z,12.0
2023-03-27T05:11:19.074Z,15.5
2023-03-27T05:12:19.205Z,14.2
2023-03-27T05:13:19.060Z,13.7
2023-03-27T05:14:19.162Z,18.1
2023-03-27T05:15:19.266Z,16.2
2023-03-27T05:16:19.169Z,14.6
2023-03-27T05:17:19.069Z,13.3
2023-03-27T05:18:19.090Z,14.6
2023-03-27T05:19:19.067Z,17.0
2023-03-27T05:20:19.076Z,15.5
2023-03-27T05:21:19.051Z,13.2
2023-03-27T05:22:19.065Z,16.7
2023-03-27T05:23:19.061Z,14.3
2023-03-27T05:24:19.102Z,18.5
2023-03-27T05:25:19.080Z,18.2
2023-03-27T05:26:19.156Z,19.4
2023-03-27T05:27:19.057Z,16.8
2023-03-27T05:28:19.050Z,17.9
2023-03-27T05:29:19.056Z,16.4
2023-03-27T05:30:19.037Z,19.0
2023-03-27T05:31:19.140Z,18.1
2023-03-27T05:32:19.042Z,17.2
2023-03-27T05:33:19.035Z,15.9
2023-03-27T05:34:19.017Z,16.4
2023-03-27T05:35:19.182Z,20.0
2023-03-27T05:36:19.023Z,16.8
2023-03-27T05:37:19.173Z,16.4
2023-03-27T05:38:19.039Z,18.4
2023-03-27T05:39:19.180Z,17.0
2023-03-27T05:40:19.202Z,14.5
2023-03-27T05:41:19.091Z,17.0
2023-03-27T05:42:19.100Z,14.8
2023-03-27T05:43:20.087Z,15.8
2023-03-27T05:44:19.096Z,18.0
2023-03-27T05:45:19.033Z,16.0
2023-03-27T05:46:21.000Z,15.0
2023-03-27T05:47:19.053Z,14.6
2023-03-27T05:48:19.219Z,16.1
2023-03-27T05:49:19.003Z,18.4
2023-03-27T05:50:19.029Z,15.9
2023-03-27T05:51:19.069Z,17.7
2023-03-27T05:52:19.075Z,16.3
2023-03-27T05:53:18.980Z,16.5
2023-03-27T05:54:19.046Z,19.3
2023-03-27T05:55:19.061Z,19.3
2023-03-27T05:56:19.088Z,20.4
2023-03-27T05:57:19.167Z,17.7
2023-03-27T05:58:18.990Z,15.0
2023-03-27T05:59:19.246Z,21.1
2023-03-27T06:00:19.228Z,15.3
2023-03-27T06:01:19.013Z,15.2
2023-03-27T06:02:21.117Z,20.1
2023-03-27T06:03:19.118Z,17.9
2023-03-27T06:04:19.188Z,15.6
2023-03-27T06:05:18.992Z,20.1
2023-03-27T06:06:18.987Z,16.4
2023-03-27T06:07:19.018Z,21.7
2023-03-27T06:08:19.047Z,18.4
2023-03-27T06:09:18.956Z,21.9
2023-03-27T06:10:19.507Z,16.2
2023-03-27T06:11:19.058Z,17.0
2023-03-27T06:12:19.074Z,20.1
2023-03-27T06:13:19.174Z,20.7
2023-03-27T06:14:19.081Z,18.5
2023-03-27T06:15:19.045Z,20.2
2023-03-27T06:16:18.975Z,18.8
2023-03-27T06:17:18.986Z,20.6
2023-03-27T06:18:19.064Z,19.3
2023-03-27T06:19:18.971Z,18.2
2023-03-27T06:20:18.977Z,18.8
2023-03-27T06:21:18.941Z,21.0
2023-03-27T06:22:18.946Z,20.9
2023-03-27T06:23:18.991Z,24.9
2023-03-27T06:24:18.974Z,18.9
2023-03-27T06:25:18.935Z,20.6
2023-03-27T06:26:18.951Z,21.3
2023-03-27T06:27:18.988Z,20.1
2023-03-27T06:28:18.950Z,20.6
2023-03-27T06:29:18.951Z,22.4
2023-03-27T06:30:18.975Z,21.0
2023-03-27T06:31:19.230Z,20.1
2023-03-27T06:32:18.940Z,22.3
2023-03-27T06:33:18.936Z,23.1
2023-03-27T06:34:18.878Z,20.1
2023-03-27T06:35:18.918Z,22.2
2023-03-27T06:36:18.960Z,21.9
2023-03-27T06:37:18.941Z,23.4
2023-03-27T06:38:19.111Z,21.7
2023-03-27T06:39:19.187Z,23.1
2023-03-27T06:40:18.935Z,21.0
2023-03-27T06:41:18.962Z,21.7
2023-03-27T06:42:19.056Z,23.5
2023-03-27T06:43:18.932Z,22.1
2023-03-27T06:44:18.966Z,22.7
2023-03-27T06:45:18.904Z,20.4
2023-03-27T06:46:18.957Z,23.9
2023-03-27T06:47:18.988Z,23.2
2023-03-27T06:48:21.599Z,23.9
2023-03-27T06:49:18.969Z,21.0
2023-03-27T06:50:19.069Z,21.1
2023-03-27T06:51:18.957Z,20.3
2023-03-27T06:52:18.887Z,22.5
2023-03-27T06:53:26.552Z,22.3
2023-03-27T06:54:18.902Z,22.8
2023-03-27T06:55:18.992Z,21.1
2023-03-27T06:56:18.945Z,21.1
2023-03-27T06:57:18.975Z,22.3
2023-03-27T06:58:19.555Z,22.1
2023-03-27T06:59:19.087Z,22.2
2023-03-27T07:00:19.026Z,22.4
2023-03-27T07:01:19.048Z,20.6
2023-03-27T07:02:18.930Z,24.1
2023-03-27T07:03:18.910Z,23.6
2023-03-27T07:04:19.159Z,23.6
2023-03-27T07:05:18.926Z,24.9
2023-03-27T07:06:18.873Z,22.6
2023-03-27T07:07:18.896Z,23.5
2023-03-27T07:08:23.433Z,24.2
2023-03-27T07:09:20.263Z,23.0
2023-03-27T07:10:18.937Z,24.0
2023-03-27T07:11:19.194Z,23.2
2023-03-27T07:12:18.918Z,22.7
2023-03-27T07:13:18.889Z,25.9
2023-03-27T07:14:18.891Z,23.6
2023-03-27T07:15:19.012Z,25.1
2023-03-27T07:16:18.958Z,25.8
2023-03-27T07:17:19.265Z,26.8
2023-03-27T07:18:18.937Z,25.0
2023-03-27T07:19:19.321Z,29.9
2023-03-27T07:20:19.062Z,27.8
2023-03-27T07:21:18.881Z,25.7
2023-03-27T07:22:18.810Z,27.0
2023-03-27T07:23:18.913Z,25.7
2023-03-27T07:24:18.856Z,25.4
2023-03-27T07:25:18.818Z,28.2
2023-03-27T07:26:41.528Z,27.2
2023-03-27T07:27:18.836Z,29.0
2023-03-27T07:28:18.859Z,26.8
2023-03-27T07:29:18.939Z,30.2
2023-03-27T07:30:18.844Z,27.0
2023-03-27T07:32:29.755Z,25.5
2023-03-27T07:33:18.982Z,25.8
2023-03-27T07:34:19.134Z,29.8
2023-03-27T07:35:18.876Z,25.9
2023-03-27T07:36:18.808Z,27.7
2023-03-27T07:37:18.850Z,28.5
2023-03-27T07:38:18.901Z,26.5
2023-03-27T07:39:18.957Z,26.8
2023-03-27T07:40:23.838Z,25.4
2023-03-27T07:41:18.827Z,31.8
2023-03-27T07:42:18.843Z,27.5
2023-03-27T07:43:18.813Z,27.5
2023-03-27T07:44:18.850Z,26.3
2023-03-27T07:45:18.926Z,26.4
2023-03-27T07:46:18.904Z,26.7
2023-03-27T07:47:19.003Z,27.3
2023-03-27T07:48:18.846Z,28.8
2023-03-27T07:49:18.780Z,27.1
2023-03-27T07:50:18.806Z,28.3
2023-03-27T07:51:18.898Z,28.7
2023-03-27T07:52:18.821Z,29.1
2023-03-27T07:53:34.847Z,32.4
2023-03-27T07:54:18.776Z,31.3
2023-03-27T07:55:18.806Z,30.2
2023-03-27T07:56:18.951Z,32.6
2023-03-27T07:57:18.916Z,30.3
2023-03-27T07:58:19.036Z,34.4
2023-03-27T07:59:18.771Z,31.5
2023-03-27T08:00:18.906Z,35.9
2023-03-27T08:01:18.834Z,33.7
2023-03-27T08:02:18.811Z,36.8
2023-03-27T08:03:18.889Z,38.4
2023-03-27T08:04:18.997Z,41.5
2023-03-27T08:05:18.817Z,38.3
2023-03-27T08:06:18.746Z,42.0
2023-03-27T08:07:18.932Z,46.4
2023-03-27T08:08:18.768Z,41.5
2023-03-27T08:09:18.931Z,47.2
2023-03-27T08:10:18.798Z,42.6
2023-03-27T08:11:29.613Z,45.2
2023-03-27T08:12:18.838Z,43.4
2023-03-27T08:13:18.859Z,38.6
2023-03-27T08:14:18.748Z,34.8
2023-03-27T08:16:18.854Z,36.3
2023-03-27T08:17:21.388Z,43.3
2023-03-27T08:18:18.982Z,39.4
2023-03-27T08:19:18.736Z,39.5
2023-03-27T08:20:19.186Z,40.8
2023-03-27T08:21:18.822Z,45.8
2023-03-27T08:22:18.912Z,42.7
2023-03-27T08:23:18.755Z,46.4
2023-03-27T08:24:18.770Z,44.0
2023-03-27T08:25:18.752Z,47.4
2023-03-27T08:26:18.779Z,44.7
2023-03-27T08:27:18.901Z,44.1
2023-03-27T08:28:18.735Z,43.5
2023-03-27T08:29:18.756Z,47.0
2023-03-27T08:30:18.847Z,42.7
2023-03-27T08:31:18.988Z,41.0
2023-03-27T08:32:18.764Z,41.1
2023-03-27T08:33:18.861Z,42.8
2023-03-27T08:34:18.743Z,44.3
2023-03-27T08:35:18.939Z,40.8
2023-03-27T08:36:18.735Z,41.9
2023-03-27T08:37:18.671Z,39.8
2023-03-27T08:38:26.052Z,39.3
2023-03-27T08:39:18.734Z,44.1
2023-03-27T08:40:18.860Z,42.9
2023-03-27T08:41:18.676Z,38.1
2023-03-27T08:42:19.423Z,40.2
2023-03-27T08:43:18.815Z,40.7
2023-03-27T08:44:18.717Z,43.0
2023-03-27T08:45:18.684Z,41.4
2023-03-27T08:46:18.731Z,44.3
2023-03-27T08:47:18.768Z,42.2
2023-03-27T08:48:21.214Z,39.6
2023-03-27T08:49:18.714Z,45.1
2023-03-27T08:50:18.691Z,41.1
2023-03-27T08:51:18.740Z,39.8
2023-03-27T08:52:18.739Z,39.7
2023-03-27T08:53:18.882Z,33.8
2023-03-27T08:54:18.721Z,33.2
2023-03-27T08:55:18.787Z,31.7
2023-03-27T08:56:18.704Z,30.0
2023-03-27T08:57:28.992Z,31.3
2023-03-27T08:58:18.768Z,29.7
2023-03-27T08:59:18.785Z,29.2
2023-03-27T09:00:18.776Z,29.5
2023-03-27T09:01:18.757Z,28.1
2023-03-27T09:02:18.732Z,28.0
2023-03-27T09:03:18.895Z,28.6
2023-03-27T09:04:18.990Z,27.6
2023-03-27T09:05:18.772Z,25.6
2023-03-27T09:06:18.751Z,24.3
2023-03-27T09:07:18.779Z,24.3
2023-03-27T09:08:18.703Z,29.3
2023-03-27T09:09:18.967Z,21.2
2023-03-27T09:10:21.513Z,27.3
2023-03-27T09:11:20.599Z,22.7
2023-03-27T09:12:18.731Z,22.4
2023-03-27T09:13:18.691Z,22.2
2023-03-27T09:14:18.670Z,23.3
2023-03-27T09:15:18.934Z,22.7
2023-03-27T09:16:18.721Z,18.2
2023-03-27T09:17:18.627Z,20.0
2023-03-27T09:18:18.622Z,19.8
2023-03-27T09:19:18.639Z,21.0
2023-03-27T09:20:18.968Z,19.7
2023-03-27T09:21:18.670Z,21.5
2023-03-27T09:22:19.030Z,18.4
2023-03-27T09:23:20.956Z,17.6
2023-03-27T09:24:18.649Z,21.5
2023-03-27T09:25:18.701Z,21.0
2023-03-27T09:26:18.612Z,21.4
2023-03-27T09:27:18.701Z,20.2
2023-03-27T09:28:18.586Z,23.5
2023-03-27T09:29:20.139Z,18.9
2023-03-27T09:30:18.742Z,19.7
2023-03-27T09:31:18.676Z,18.1
2023-03-27T09:32:18.688Z,18.9
2023-03-27T09:33:18.681Z,20.7
2023-03-27T09:34:18.655Z,21.8
2023-03-27T09:35:18.645Z,20.0
2023-03-27T09:36:18.738Z,16.6
2023-03-27T09:37:18.843Z,19.8
2023-03-27T09:38:18.614Z,18.1
2023-03-27T09:39:18.687Z,21.8
2023-03-27T09:40:18.691Z,20.1
2023-03-27T09:41:18.667Z,17.5
2023-03-27T09:42:18.636Z,20.5
2023-03-27T09:43:18.709Z,18.5
2023-03-27T09:44:18.621Z,19.3
2023-03-27T09:45:18.637Z,17.5
2023-03-27T09:46:18.594Z,19.6
2023-03-27T09:47:18.634Z,18.6
2023-03-27T09:48:18.957Z,17.5
2023-03-27T09:49:18.631Z,21.8
2023-03-27T09:50:18.651Z,19.4
2023-03-27T09:52:18.635Z,18.3
2023-03-27T09:53:18.566Z,19.8
2023-03-27T09:54:18.735Z,16.2
2023-03-27T09:55:18.756Z,16.2
2023-03-27T09:56:18.597Z,14.2
2023-03-27T09:57:18.687Z,13.9
2023-03-27T09:58:18.608Z,13.9
2023-03-27T09:59:18.733Z,13.5
2023-03-27T10:00:18.712Z,13.1
2023-03-27T10:01:20.225Z,15.7
2023-03-27T10:02:18.584Z,12.7
2023-03-27T10:03:18.646Z,14.1
2023-03-27T10:04:18.653Z,14.0
2023-03-27T10:05:18.575Z,12.0
2023-03-27T10:06:18.536Z,12.6
2023-03-27T10:07:18.627Z,14.9
2023-03-27T10:08:43.326Z,12.8
2023-03-27T10:09:18.618Z,16.8
2023-03-27T10:10:18.591Z,17.7
2023-03-27T10:11:18.545Z,15.1
2023-03-27T10:12:18.599Z,13.5
2023-03-27T10:13:18.594Z,21.2
2023-03-27T10:14:18.736Z,16.2
2023-03-27T10:15:18.595Z,19.1
2023-03-27T10:16:18.745Z,16.9
2023-03-27T10:17:18.574Z,15.2
2023-03-27T10:18:18.569Z,19.4
2023-03-27T10:19:18.523Z,17.0
2023-03-27T10:20:18.591Z,16.0
2023-03-27T10:21:18.803Z,16.4
2023-03-27T10:22:18.559Z,17.0
2023-03-27T10:23:18.562Z,16.3
2023-03-27T10:24:18.511Z,18.3
2023-03-27T10:25:18.563Z,17.4
2023-03-27T10:26:20.642Z,12.7
2023-03-27T10:27:18.515Z,16.3
2023-03-27T10:28:18.610Z,15.3
2023-03-27T10:29:18.505Z,16.3
2023-03-27T10:30:18.565Z,15.2
2023-03-27T10:31:18.532Z,12.7
2023-03-27T10:32:18.819Z,14.3
2023-03-27T10:33:18.633Z,9.9
2023-03-27T10:34:18.522Z,11.8
2023-03-27T10:35:18.512Z,10.5
2023-03-27T10:36:18.511Z,12.4
2023-03-27T10:37:41.261Z,11.8
2023-03-27T10:38:18.499Z,9.0
2023-03-27T10:39:18.568Z,9.6
2023-03-27T10:40:18.508Z,10.2
2023-03-27T10:41:28.559Z,8.4
2023-03-27T10:42:18.711Z,8.6
2023-03-27T10:43:18.659Z,8.1
2023-03-27T10:44:18.491Z,7.0
2023-03-27T10:45:18.547Z,7.7
2023-03-27T10:46:18.540Z,7.4
2023-03-27T10:47:18.521Z,10.4
2023-03-27T10:48:18.510Z,8.7
2023-03-27T10:49:18.498Z,8.0
2023-03-27T10:50:18.591Z,8.0
2023-03-27T10:51:18.530Z,8.4
2023-03-27T10:52:18.450Z,7.9
2023-03-27T10:53:18.599Z,6.5
2023-03-27T10:54:18.741Z,8.5
2023-03-27T10:55:18.502Z,8.0
2023-03-27T10:56:18.453Z,8.3
2023-03-27T10:57:18.958Z,7.6
2023-03-27T10:58:18.483Z,8.6
2023-03-27T10:59:23.402Z,8.7
2023-03-27T11:00:18.804Z,8.2
2023-03-27T11:01:18.586Z,8.6
2023-03-27T11:02:18.538Z,6.5
2023-03-27T11:03:18.575Z,9.3
2023-03-27T11:04:18.619Z,7.1
2023-03-27T11:05:18.902Z,5.5
2023-03-27T11:06:18.561Z,7.3
2023-03-27T11:07:18.583Z,5.1
2023-03-27T11:08:18.621Z,7.3
2023-03-27T11:09:18.757Z,7.9
2023-03-27T11:10:18.425Z,6.2
2023-03-27T11:11:18.458Z,6.7
2023-03-27T11:12:18.468Z,6.9
2023-03-27T11:13:18.535Z,7.4
2023-03-27T11:14:18.461Z,6.8
2023-03-27T11:15:18.480Z,7.5
2023-03-27T11:16:18.623Z,8.3
2023-03-27T11:17:18.456Z,6.9
2023-03-27T11:18:18.489Z,7.5
2023-03-27T11:19:18.407Z,6.0
2023-03-27T11:20:18.420Z,6.4
2023-03-27T11:21:19.511Z,7.5
2023-03-27T11:22:18.451Z,7.1
2023-03-27T11:23:18.415Z,7.3
2023-03-27T11:24:18.542Z,6.2
2023-03-27T11:25:18.442Z,6.2
2023-03-27T11:26:41.467Z,8.0
2023-03-27T11:27:18.483Z,6.3
2023-03-27T11:28:18.471Z,6.7
2023-03-27T11:29:18.444Z,6.6
2023-03-27T11:31:18.424Z,6.5
2023-03-27T11:32:18.581Z,4.3
2023-03-27T11:33:18.502Z,7.7
2023-03-27T11:34:29.104Z,4.8
2023-03-27T11:35:18.496Z,7.6
2023-03-27T11:36:18.412Z,6.5
2023-03-27T11:37:18.513Z,5.9
2023-03-27T11:38:18.537Z,4.7
2023-03-27T11:39:18.498Z,6.2
2023-03-27T11:40:18.513Z,5.8
2023-03-27T11:41:18.661Z,5.5
2023-03-27T11:42:18.598Z,5.4
2023-03-27T11:43:18.586Z,5.0
2023-03-27T11:44:18.470Z,5.9
2023-03-27T11:45:18.393Z,4.5
2023-03-27T11:46:18.443Z,5.6
2023-03-27T11:47:18.800Z,7.3
2023-03-27T11:48:18.700Z,5.5
2023-03-27T11:49:18.626Z,7.1
2023-03-27T11:50:18.338Z,4.9
2023-03-27T11:51:18.362Z,5.9
2023-03-27T11:52:18.456Z,5.7
2023-03-27T11:53:18.460Z,6.9
2023-03-27T11:54:18.529Z,4.8
2023-03-27T11:55:18.319Z,5.7
2023-03-27T11:56:18.430Z,5.0
2023-03-27T11:57:18.566Z,5.6
2023-03-27T11:58:18.413Z,4.7
2023-03-27T11:59:18.373Z,5.9
2023-03-27T12:00:18.396Z,4.8
2023-03-27T12:01:19.151Z,6.4
2023-03-27T12:02:18.563Z,3.9
2023-03-27T12:03:21.445Z,7.5
2023-03-27T12:04:18.509Z,6.1
2023-03-27T12:05:18.623Z,5.6
2023-03-27T12:06:18.692Z,5.7
2023-03-27T12:07:26.301Z,6.4
2023-03-27T12:08:18.374Z,4.5
2023-03-27T12:09:18.527Z,4.0
2023-03-27T12:10:18.367Z,5.6
2023-03-27T12:11:18.341Z,5.2
2023-03-27T12:12:18.372Z,5.2
2023-03-27T12:13:18.345Z,4.1
2023-03-27T12:14:19.162Z,3.6
2023-03-27T12:15:18.391Z,5.0
2023-03-27T12:16:18.410Z,3.8
2023-03-27T12:17:18.330Z,3.7
2023-03-27T12:18:18.349Z,5.0
2023-03-27T12:19:28.329Z,5.6
2023-03-27T12:20:18.582Z,6.8
2023-03-27T12:21:18.318Z,6.0
2023-03-27T12:22:23.844Z,4.2
2023-03-27T12:23:18.328Z,4.6
2023-03-27T12:24:19.258Z,5.1
2023-03-27T12:25:18.352Z,5.3
2023-03-27T12:26:18.404Z,5.0
2023-03-27T12:27:18.351Z,4.6
2023-03-27T12:28:23.168Z,5.4
2023-03-27T12:29:23.347Z,6.6
2023-03-27T12:30:18.348Z,5.0
2023-03-27T12:31:18.707Z,4.5
2023-03-27T12:32:18.367Z,5.5
2023-03-27T12:33:18.612Z,7.1
2023-03-27T12:34:18.433Z,5.1
2023-03-27T12:35:21.487Z,6.3
2023-03-27T12:36:18.385Z,6.8
2023-03-27T12:37:19.168Z,6.4
2023-03-27T12:38:18.683Z,5.0
2023-03-27T12:39:18.340Z,5.9
2023-03-27T12:40:18.586Z,4.9
2023-03-27T12:41:18.523Z,5.7
2023-03-27T12:42:19.221Z,4.2
2023-03-27T12:43:18.870Z,4.9
2023-03-27T12:44:18.299Z,6.1
2023-03-27T12:45:18.503Z,5.1
2023-03-27T12:46:18.386Z,4.8
2023-03-27T12:47:18.309Z,8.6
2023-03-27T12:48:18.317Z,7.1
2023-03-27T12:49:18.315Z,5.8
2023-03-27T12:50:18.312Z,4.8
2023-03-27T12:51:20.476Z,5.0
2023-03-27T12:52:18.453Z,5.5
2023-03-27T12:53:18.371Z,8.0
2023-03-27T12:54:18.492Z,9.2
2023-03-27T12:55:18.613Z,6.2
2023-03-27T12:56:18.315Z,9.4
2023-03-27T12:57:19.990Z,7.3
2023-03-27T12:58:18.563Z,6.8
2023-03-27T12:59:18.329Z,20.6
2023-03-27T13:00:18.344Z,7.2
2023-03-27T13:01:18.331Z,7.5
2023-03-27T13:02:18.399Z,7.5
2023-03-27T13:03:19.189Z,6.0
2023-03-27T13:04:18.274Z,4.6
2023-03-27T13:05:26.958Z,6.3
2023-03-27T13:06:18.439Z,4.2
2023-03-27T13:07:18.597Z,5.1
2023-03-27T13:08:18.799Z,4.4
2023-03-27T13:09:18.602Z,5.0
2023-03-27T13:10:18.290Z,5.2
2023-03-27T13:11:18.373Z,5.2
2023-03-27T13:12:18.989Z,5.6
2023-03-27T13:13:18.396Z,4.1
2023-03-27T13:14:18.478Z,6.2
2023-03-27T13:15:18.734Z,4.3
2023-03-27T13:16:18.434Z,5.5
2023-03-27T13:17:18.302Z,5.6
2023-03-27T13:18:18.473Z,5.1
2023-03-27T13:19:18.403Z,4.7
2023-03-27T13:20:18.331Z,4.9
2023-03-27T13:21:18.491Z,4.1
2023-03-27T13:22:18.312Z,5.1
2023-03-27T13:23:19.031Z,4.1
2023-03-27T13:24:18.513Z,6.2
2023-03-27T13:25:18.373Z,5.3
2023-03-27T13:26:19.612Z,4.9
2023-03-27T13:27:18.312Z,4.4
2023-03-27T13:28:18.585Z,4.4
2023-03-27T13:29:18.246Z,7.0